sensor_id;sensor_type;location;lat;lon;timestamp;temperature;humidity
75321;DHT22;63920;52.130;5.584;2022-12-07T00:01:12;4.30;99.90
75321;DHT22;63920;52.130;5.584;2022-12-07T00:03:39;4.30;99.90
75321;DHT22;63920;52.130;5.584;2022-12-07T00:06:06;4.30;99.90
75321;DHT22;63920;52.130;5.584;2022-12-07T00:08:32;4.30;99.90
75321;DHT22;63920;52.130;5.584;2022-12-07T00:11:03;4.30;99.90
75321;DHT22;63920;52.130;5.584;2022-12-07T00:13:31;4.40;99.90
75321;DHT22;63920;52.130;5.584;2022-12-07T00:16:07;4.40;99.90
75321;DHT22;63920;52.130;5.584;2022-12-07T00:18:33;4.40;99.90
75321;DHT22;63920;52.130;5.584;2022-12-07T00:21:03;4.30;99.90
75321;DHT22;63920;52.130;5.584;2022-12-07T00:23:29;4.30;99.90
75321;DHT22;63920;52.130;5.584;2022-12-07T00:25:55;4.30;99.90
75321;DHT22;63920;52.130;5.584;2022-12-07T00:28:21;4.50;99.90
75321;DHT22;63920;52.130;5.584;2022-12-07T00:30:46;4.40;99.90
75321;DHT22;63920;52.130;5.584;2022-12-07T00:33:12;4.40;99.90
75321;DHT22;63920;52.130;5.584;2022-12-07T00:35:37;4.30;99.90
75321;DHT22;63920;52.130;5.584;2022-12-07T00:38:03;4.20;99.90
75321;DHT22;63920;52.130;5.584;2022-12-07T00:40:28;4.20;99.90
75321;DHT22;63920;52.130;5.584;2022-12-07T00:42:54;4.30;99.90
75321;DHT22;63920;52.130;5.584;2022-12-07T00:45:19;4.30;99.90
75321;DHT22;63920;52.130;5.584;2022-12-07T00:47:45;4.30;99.90
75321;DHT22;63920;52.130;5.584;2022-12-07T00:50:11;4.30;99.90
75321;DHT22;63920;52.130;5.584;2022-12-07T00:52:36;4.30;99.90
75321;DHT22;63920;52.130;5.584;2022-12-07T00:55:02;4.30;99.90
75321;DHT22;63920;52.130;5.584;2022-12-07T00:57:27;4.20;99.90
75321;DHT22;63920;52.130;5.584;2022-12-07T00:59:53;4.20;99.90
75321;DHT22;63920;52.130;5.584;2022-12-07T01:02:23;4.20;99.90
75321;DHT22;63920;52.130;5.584;2022-12-07T01:04:48;4.30;99.90
75321;DHT22;63920;52.130;5.584;2022-12-07T01:07:14;4.20;99.90
75321;DHT22;63920;52.130;5.584;2022-12-07T01:09:39;4.20;99.90
75321;DHT22;63920;52.130;5.584;2022-12-07T01:12:05;4.20;99.90
75321;DHT22;63920;52.130;5.584;2022-12-07T01:14:30;4.10;99.90
75321;DHT22;63920;52.130;5.584;2022-12-07T01:16:56;4.10;99.90
75321;DHT22;63920;52.130;5.584;2022-12-07T01:19:22;4.10;99.90
75321;DHT22;63920;52.130;5.584;2022-12-07T01:21:47;4.10;99.90
75321;DHT22;63920;52.130;5.584;2022-12-07T01:24:13;4.00;99.90
75321;DHT22;63920;52.130;5.584;2022-12-07T01:26:38;4.00;99.90
75321;DHT22;63920;52.130;5.584;2022-12-07T01:29:04;4.20;99.90
75321;DHT22;63920;52.130;5.584;2022-12-07T01:31:30;4.10;99.90
75321;DHT22;63920;52.130;5.584;2022-12-07T01:33:57;4.00;99.90
75321;DHT22;63920;52.130;5.584;2022-12-07T01:36:24;4.00;99.90
75321;DHT22;63920;52.130;5.584;2022-12-07T01:38:54;4.00;99.90
75321;DHT22;63920;52.130;5.584;2022-12-07T01:41:23;3.90;99.90
75321;DHT22;63920;52.130;5.584;2022-12-07T01:44:17;3.80;99.90
75321;DHT22;63920;52.130;5.584;2022-12-07T01:46:51;3.80;99.90
75321;DHT22;63920;52.130;5.584;2022-12-07T01:49:26;3.80;99.90
75321;DHT22;63920;52.130;5.584;2022-12-07T01:51:58;3.80;99.90
75321;DHT22;63920;52.130;5.584;2022-12-07T01:54:26;3.90;99.90
75321;DHT22;63920;52.130;5.584;2022-12-07T01:56:53;3.80;99.90
75321;DHT22;63920;52.130;5.584;2022-12-07T01:59:23;3.80;99.90
75321;DHT22;63920;52.130;5.584;2022-12-07T02:01:50;3.70;99.90
75321;DHT22;63920;52.130;5.584;2022-12-07T02:04:16;3.70;99.90
75321;DHT22;63920;52.130;5.584;2022-12-07T02:06:43;3.60;99.90
75321;DHT22;63920;52.130;5.584;2022-12-07T02:09:09;3.50;99.90
75321;DHT22;63920;52.130;5.584;2022-12-07T02:11:35;3.50;99.90
75321;DHT22;63920;52.130;5.584;2022-12-07T02:14:01;3.40;99.90
75321;DHT22;63920;52.130;5.584;2022-12-07T02:16:47;3.50;99.90
75321;DHT22;63920;52.130;5.584;2022-12-07T02:19:38;3.40;99.90
75321;DHT22;63920;52.130;5.584;2022-12-07T02:22:35;3.40;99.90
75321;DHT22;63920;52.130;5.584;2022-12-07T02:28:12;3.40;99.90
75321;DHT22;63920;52.130;5.584;2022-12-07T02:30:46;3.40;99.90
75321;DHT22;63920;52.130;5.584;2022-12-07T02:33:18;3.50;99.90
75321;DHT22;63920;52.130;5.584;2022-12-07T02:43:35;3.60;99.90
75321;DHT22;63920;52.130;5.584;2022-12-07T02:46:08;3.50;99.90
75321;DHT22;63920;52.130;5.584;2022-12-07T02:51:56;3.70;99.90
75321;DHT22;63920;52.130;5.584;2022-12-07T02:54:22;3.60;99.90
75321;DHT22;63920;52.130;5.584;2022-12-07T02:56:49;3.70;99.90
75321;DHT22;63920;52.130;5.584;2022-12-07T03:05:19;3.80;99.90
75321;DHT22;63920;52.130;5.584;2022-12-07T03:10:50;3.90;99.90
75321;DHT22;63920;52.130;5.584;2022-12-07T03:18:53;3.90;99.90
75321;DHT22;63920;52.130;5.584;2022-12-07T03:21:25;3.80;99.90
75321;DHT22;63920;52.130;5.584;2022-12-07T03:23:56;3.80;99.90
75321;DHT22;63920;52.130;5.584;2022-12-07T03:26:29;3.90;99.90
75321;DHT22;63920;52.130;5.584;2022-12-07T03:29:00;3.90;99.90
75321;DHT22;63920;52.130;5.584;2022-12-07T03:31:31;3.90;99.90
75321;DHT22;63920;52.130;5.584;2022-12-07T03:37:00;3.90;99.90
75321;DHT22;63920;52.130;5.584;2022-12-07T03:39:38;3.90;99.90
75321;DHT22;63920;52.130;5.584;2022-12-07T03:42:07;3.90;99.90
75321;DHT22;63920;52.130;5.584;2022-12-07T03:44:35;3.90;99.90
75321;DHT22;63920;52.130;5.584;2022-12-07T03:47:15;3.90;99.90
75321;DHT22;63920;52.130;5.584;2022-12-07T03:49:52;3.90;99.90
75321;DHT22;63920;52.130;5.584;2022-12-07T03:54:57;3.90;99.90
75321;DHT22;63920;52.130;5.584;2022-12-07T03:57:26;3.90;99.90
75321;DHT22;63920;52.130;5.584;2022-12-07T03:59:55;3.90;99.90
75321;DHT22;63920;52.130;5.584;2022-12-07T04:02:22;3.90;99.90
75321;DHT22;63920;52.130;5.584;2022-12-07T04:04:48;3.80;99.90
75321;DHT22;63920;52.130;5.584;2022-12-07T04:07:14;3.80;99.90
75321;DHT22;63920;52.130;5.584;2022-12-07T04:09:40;3.80;99.90
75321;DHT22;63920;52.130;5.584;2022-12-07T04:12:05;3.80;99.90
75321;DHT22;63920;52.130;5.584;2022-12-07T04:14:31;3.80;99.90
75321;DHT22;63920;52.130;5.584;2022-12-07T04:16:58;3.80;99.90
75321;DHT22;63920;52.130;5.584;2022-12-07T04:19:31;3.80;99.90
75321;DHT22;63920;52.130;5.584;2022-12-07T04:21:59;3.80;99.90
75321;DHT22;63920;52.130;5.584;2022-12-07T04:24:26;3.80;99.90
75321;DHT22;63920;52.130;5.584;2022-12-07T04:26:51;3.80;99.90
75321;DHT22;63920;52.130;5.584;2022-12-07T04:29:18;3.80;99.90
75321;DHT22;63920;52.130;5.584;2022-12-07T04:31:44;3.80;99.90
75321;DHT22;63920;52.130;5.584;2022-12-07T04:34:09;3.90;99.90
75321;DHT22;63920;52.130;5.584;2022-12-07T04:36:36;3.80;99.90
75321;DHT22;63920;52.130;5.584;2022-12-07T04:39:02;3.90;99.90
75321;DHT22;63920;52.130;5.584;2022-12-07T04:41:28;3.90;99.90
75321;DHT22;63920;52.130;5.584;2022-12-07T04:43:58;3.90;99.90
75321;DHT22;63920;52.130;5.584;2022-12-07T04:46:25;3.90;99.90
75321;DHT22;63920;52.130;5.584;2022-12-07T04:48:52;3.90;99.90
75321;DHT22;63920;52.130;5.584;2022-12-07T04:51:26;3.90;99.90
75321;DHT22;63920;52.130;5.584;2022-12-07T04:53:52;3.90;99.90
75321;DHT22;63920;52.130;5.584;2022-12-07T04:56:18;3.90;99.90
75321;DHT22;63920;52.130;5.584;2022-12-07T04:58:45;3.90;99.90
75321;DHT22;63920;52.130;5.584;2022-12-07T05:01:12;3.90;99.90
75321;DHT22;63920;52.130;5.584;2022-12-07T05:03:39;4.00;99.90
75321;DHT22;63920;52.130;5.584;2022-12-07T05:06:05;3.90;99.90
75321;DHT22;63920;52.130;5.584;2022-12-07T05:08:32;3.90;99.90
75321;DHT22;63920;52.130;5.584;2022-12-07T05:10:58;3.90;99.90
75321;DHT22;63920;52.130;5.584;2022-12-07T05:13:24;3.90;99.90
75321;DHT22;63920;52.130;5.584;2022-12-07T05:15:49;3.90;99.90
75321;DHT22;63920;52.130;5.584;2022-12-07T05:18:15;3.90;99.90
75321;DHT22;63920;52.130;5.584;2022-12-07T05:20:42;3.80;99.90
75321;DHT22;63920;52.130;5.584;2022-12-07T05:23:07;3.80;99.90
75321;DHT22;63920;52.130;5.584;2022-12-07T05:25:33;3.80;99.90
75321;DHT22;63920;52.130;5.584;2022-12-07T05:27:59;3.80;99.90
75321;DHT22;63920;52.130;5.584;2022-12-07T05:30:25;3.70;99.90
75321;DHT22;63920;52.130;5.584;2022-12-07T05:32:51;3.70;99.90
75321;DHT22;63920;52.130;5.584;2022-12-07T05:35:17;3.70;99.80
75321;DHT22;63920;52.130;5.584;2022-12-07T05:37:43;3.70;99.70
75321;DHT22;63920;52.130;5.584;2022-12-07T05:40:10;3.70;99.50
75321;DHT22;63920;52.130;5.584;2022-12-07T05:42:36;3.60;99.20
75321;DHT22;63920;52.130;5.584;2022-12-07T05:45:02;3.60;98.90
75321;DHT22;63920;52.130;5.584;2022-12-07T05:47:27;3.60;99.20
75321;DHT22;63920;52.130;5.584;2022-12-07T05:49:53;3.60;99.20
75321;DHT22;63920;52.130;5.584;2022-12-07T05:52:18;3.50;99.40
75321;DHT22;63920;52.130;5.584;2022-12-07T05:54:44;3.50;99.50
75321;DHT22;63920;52.130;5.584;2022-12-07T05:57:10;3.40;99.40
75321;DHT22;63920;52.130;5.584;2022-12-07T05:59:36;3.40;99.40
75321;DHT22;63920;52.130;5.584;2022-12-07T06:02:07;3.50;99.40
75321;DHT22;63920;52.130;5.584;2022-12-07T06:04:36;3.50;99.20
75321;DHT22;63920;52.130;5.584;2022-12-07T06:07:02;3.50;99.10
75321;DHT22;63920;52.130;5.584;2022-12-07T06:09:28;3.50;99.40
75321;DHT22;63920;52.130;5.584;2022-12-07T06:11:55;3.50;99.00
75321;DHT22;63920;52.130;5.584;2022-12-07T06:14:40;3.50;98.90
75321;DHT22;63920;52.130;5.584;2022-12-07T06:17:06;3.40;99.40
75321;DHT22;63920;52.130;5.584;2022-12-07T06:19:32;3.50;99.00
75321;DHT22;63920;52.130;5.584;2022-12-07T06:21:58;3.50;99.20
75321;DHT22;63920;52.130;5.584;2022-12-07T06:24:24;3.50;99.30
75321;DHT22;63920;52.130;5.584;2022-12-07T06:26:50;3.50;99.50
75321;DHT22;63920;52.130;5.584;2022-12-07T06:29:16;3.50;99.80
75321;DHT22;63920;52.130;5.584;2022-12-07T06:31:42;3.60;99.90
75321;DHT22;63920;52.130;5.584;2022-12-07T06:34:12;3.50;99.90
75321;DHT22;63920;52.130;5.584;2022-12-07T06:36:39;3.50;99.90
75321;DHT22;63920;52.130;5.584;2022-12-07T06:39:06;3.50;99.90
75321;DHT22;63920;52.130;5.584;2022-12-07T06:41:33;3.40;99.90
75321;DHT22;63920;52.130;5.584;2022-12-07T06:43:58;3.40;99.90
75321;DHT22;63920;52.130;5.584;2022-12-07T06:46:24;3.40;99.90
75321;DHT22;63920;52.130;5.584;2022-12-07T06:48:49;3.40;99.90
75321;DHT22;63920;52.130;5.584;2022-12-07T06:51:16;3.40;99.90
75321;DHT22;63920;52.130;5.584;2022-12-07T06:53:42;3.40;99.90
75321;DHT22;63920;52.130;5.584;2022-12-07T06:56:07;3.40;99.90
75321;DHT22;63920;52.130;5.584;2022-12-07T06:58:33;3.40;99.90
75321;DHT22;63920;52.130;5.584;2022-12-07T07:00:58;3.40;99.90
75321;DHT22;63920;52.130;5.584;2022-12-07T07:03:24;3.40;99.90
75321;DHT22;63920;52.130;5.584;2022-12-07T07:05:49;3.40;99.90
75321;DHT22;63920;52.130;5.584;2022-12-07T07:08:15;3.40;99.90
75321;DHT22;63920;52.130;5.584;2022-12-07T07:10:41;3.40;99.90
75321;DHT22;63920;52.130;5.584;2022-12-07T07:13:07;3.40;99.90
75321;DHT22;63920;52.130;5.584;2022-12-07T07:15:33;3.40;99.90
75321;DHT22;63920;52.130;5.584;2022-12-07T07:17:59;3.40;99.90
75321;DHT22;63920;52.130;5.584;2022-12-07T07:20:25;3.40;99.90
75321;DHT22;63920;52.130;5.584;2022-12-07T07:22:54;3.40;99.80
75321;DHT22;63920;52.130;5.584;2022-12-07T07:25:19;3.40;99.70
75321;DHT22;63920;52.130;5.584;2022-12-07T07:27:45;3.30;99.80
75321;DHT22;63920;52.130;5.584;2022-12-07T07:30:11;3.30;99.50
75321;DHT22;63920;52.130;5.584;2022-12-07T07:32:36;3.30;99.50
75321;DHT22;63920;52.130;5.584;2022-12-07T07:35:02;3.40;99.60
75321;DHT22;63920;52.130;5.584;2022-12-07T07:37:28;3.40;99.60
75321;DHT22;63920;52.130;5.584;2022-12-07T07:39:53;3.40;99.70
75321;DHT22;63920;52.130;5.584;2022-12-07T07:42:19;3.40;99.60
75321;DHT22;63920;52.130;5.584;2022-12-07T07:44:44;3.30;99.60
75321;DHT22;63920;52.130;5.584;2022-12-07T07:47:10;3.20;99.40
75321;DHT22;63920;52.130;5.584;2022-12-07T07:49:36;3.20;99.50
75321;DHT22;63920;52.130;5.584;2022-12-07T07:52:02;3.20;99.60
75321;DHT22;63920;52.130;5.584;2022-12-07T07:54:27;3.20;99.40
75321;DHT22;63920;52.130;5.584;2022-12-07T07:56:53;3.20;99.50
75321;DHT22;63920;52.130;5.584;2022-12-07T07:59:18;3.20;99.40
75321;DHT22;63920;52.130;5.584;2022-12-07T08:01:44;3.20;99.40
75321;DHT22;63920;52.130;5.584;2022-12-07T08:04:09;3.30;99.50
75321;DHT22;63920;52.130;5.584;2022-12-07T08:06:35;3.20;99.80
75321;DHT22;63920;52.130;5.584;2022-12-07T08:09:01;3.30;99.90
75321;DHT22;63920;52.130;5.584;2022-12-07T08:11:27;3.30;99.90
75321;DHT22;63920;52.130;5.584;2022-12-07T08:13:52;3.30;99.90
75321;DHT22;63920;52.130;5.584;2022-12-07T08:16:18;3.30;99.90
75321;DHT22;63920;52.130;5.584;2022-12-07T08:18:44;3.30;99.90
75321;DHT22;63920;52.130;5.584;2022-12-07T08:21:13;3.30;99.90
75321;DHT22;63920;52.130;5.584;2022-12-07T08:23:39;3.30;99.90
75321;DHT22;63920;52.130;5.584;2022-12-07T08:26:07;3.40;99.90
75321;DHT22;63920;52.130;5.584;2022-12-07T08:28:33;3.40;99.90
75321;DHT22;63920;52.130;5.584;2022-12-07T08:31:00;3.40;99.90
75321;DHT22;63920;52.130;5.584;2022-12-07T08:33:26;3.40;99.90
75321;DHT22;63920;52.130;5.584;2022-12-07T08:35:51;3.40;99.90
75321;DHT22;63920;52.130;5.584;2022-12-07T08:38:17;3.50;99.90
75321;DHT22;63920;52.130;5.584;2022-12-07T08:40:42;3.50;99.90
75321;DHT22;63920;52.130;5.584;2022-12-07T08:43:08;3.60;99.90
75321;DHT22;63920;52.130;5.584;2022-12-07T08:45:33;3.60;99.90
75321;DHT22;63920;52.130;5.584;2022-12-07T08:48:12;3.60;99.90
75321;DHT22;63920;52.130;5.584;2022-12-07T08:50:39;3.70;99.90
75321;DHT22;63920;52.130;5.584;2022-12-07T08:53:05;3.70;99.90
75321;DHT22;63920;52.130;5.584;2022-12-07T08:55:33;3.70;99.90
75321;DHT22;63920;52.130;5.584;2022-12-07T08:57:59;3.80;99.90
75321;DHT22;63920;52.130;5.584;2022-12-07T09:00:26;3.80;99.90
75321;DHT22;63920;52.130;5.584;2022-12-07T09:02:51;3.90;99.90
75321;DHT22;63920;52.130;5.584;2022-12-07T09:05:17;3.90;99.90
75321;DHT22;63920;52.130;5.584;2022-12-07T09:07:49;3.90;99.90
75321;DHT22;63920;52.130;5.584;2022-12-07T09:10:17;3.90;99.90
75321;DHT22;63920;52.130;5.584;2022-12-07T09:12:42;3.90;99.90
75321;DHT22;63920;52.130;5.584;2022-12-07T09:15:08;3.90;99.90
75321;DHT22;63920;52.130;5.584;2022-12-07T09:17:34;4.00;99.90
75321;DHT22;63920;52.130;5.584;2022-12-07T09:20:01;3.90;99.90
75321;DHT22;63920;52.130;5.584;2022-12-07T09:22:30;3.90;99.90
75321;DHT22;63920;52.130;5.584;2022-12-07T09:24:59;4.00;99.90
75321;DHT22;63920;52.130;5.584;2022-12-07T09:27:25;4.00;99.90
75321;DHT22;63920;52.130;5.584;2022-12-07T09:29:51;4.10;99.90
75321;DHT22;63920;52.130;5.584;2022-12-07T09:32:17;4.10;99.90
75321;DHT22;63920;52.130;5.584;2022-12-07T09:34:42;4.10;99.90
75321;DHT22;63920;52.130;5.584;2022-12-07T09:37:08;4.30;99.90
75321;DHT22;63920;52.130;5.584;2022-12-07T09:39:34;4.30;99.90
75321;DHT22;63920;52.130;5.584;2022-12-07T09:42:03;4.30;99.90
75321;DHT22;63920;52.130;5.584;2022-12-07T09:44:29;4.40;99.90
75321;DHT22;63920;52.130;5.584;2022-12-07T09:46:55;4.50;99.90
75321;DHT22;63920;52.130;5.584;2022-12-07T09:49:23;4.50;99.90
75321;DHT22;63920;52.130;5.584;2022-12-07T09:54:36;4.50;99.90
75321;DHT22;63920;52.130;5.584;2022-12-07T09:57:08;4.40;99.90
75321;DHT22;63920;52.130;5.584;2022-12-07T09:59:34;4.40;99.90
75321;DHT22;63920;52.130;5.584;2022-12-07T10:02:25;4.40;99.90
75321;DHT22;63920;52.130;5.584;2022-12-07T10:04:50;4.40;99.90
75321;DHT22;63920;52.130;5.584;2022-12-07T10:07:16;4.40;99.90
75321;DHT22;63920;52.130;5.584;2022-12-07T10:09:42;4.50;99.90
75321;DHT22;63920;52.130;5.584;2022-12-07T10:12:11;4.50;99.90
75321;DHT22;63920;52.130;5.584;2022-12-07T10:14:40;4.50;99.90
75321;DHT22;63920;52.130;5.584;2022-12-07T10:17:38;4.50;99.90
75321;DHT22;63920;52.130;5.584;2022-12-07T10:20:16;4.60;99.90
75321;DHT22;63920;52.130;5.584;2022-12-07T10:22:55;4.60;99.90
75321;DHT22;63920;52.130;5.584;2022-12-07T10:25:22;4.60;99.90
75321;DHT22;63920;52.130;5.584;2022-12-07T10:30:29;4.70;99.90
75321;DHT22;63920;52.130;5.584;2022-12-07T10:32:55;4.80;99.90
75321;DHT22;63920;52.130;5.584;2022-12-07T10:37:52;4.90;99.80
75321;DHT22;63920;52.130;5.584;2022-12-07T10:40:33;5.00;99.60
75321;DHT22;63920;52.130;5.584;2022-12-07T10:46:19;4.90;99.50
75321;DHT22;63920;52.130;5.584;2022-12-07T10:51:41;5.10;99.50
75321;DHT22;63920;52.130;5.584;2022-12-07T10:57:06;5.10;99.10
75321;DHT22;63920;52.130;5.584;2022-12-07T10:59:42;5.20;99.40
75321;DHT22;63920;52.130;5.584;2022-12-07T11:02:25;5.30;98.50
75321;DHT22;63920;52.130;5.584;2022-12-07T11:13:52;5.40;98.00
75321;DHT22;63920;52.130;5.584;2022-12-07T11:19:28;5.60;97.50
75321;DHT22;63920;52.130;5.584;2022-12-07T11:22:13;5.70;97.20
75321;DHT22;63920;52.130;5.584;2022-12-07T11:28:02;5.70;96.80
75321;DHT22;63920;52.130;5.584;2022-12-07T11:30:38;5.70;96.90
75321;DHT22;63920;52.130;5.584;2022-12-07T11:33:12;5.70;96.90
75321;DHT22;63920;52.130;5.584;2022-12-07T11:35:45;5.60;96.90
75321;DHT22;63920;52.130;5.584;2022-12-07T11:38:15;5.70;97.10
75321;DHT22;63920;52.130;5.584;2022-12-07T11:40:46;5.60;97.20
75321;DHT22;63920;52.130;5.584;2022-12-07T11:43:21;5.60;97.20
75321;DHT22;63920;52.130;5.584;2022-12-07T11:46:04;5.60;97.40
75321;DHT22;63920;52.130;5.584;2022-12-07T11:48:40;5.60;97.70
75321;DHT22;63920;52.130;5.584;2022-12-07T11:51:10;5.70;97.70
75321;DHT22;63920;52.130;5.584;2022-12-07T11:53:46;5.80;97.60
75321;DHT22;63920;52.130;5.584;2022-12-07T11:56:16;5.90;97.60
75321;DHT22;63920;52.130;5.584;2022-12-07T12:06:34;6.20;96.80
75321;DHT22;63920;52.130;5.584;2022-12-07T12:09:26;6.20;96.50
75321;DHT22;63920;52.130;5.584;2022-12-07T12:23:04;6.40;96.30
75321;DHT22;63920;52.130;5.584;2022-12-07T12:25:47;6.40;96.30
75321;DHT22;63920;52.130;5.584;2022-12-07T12:28:50;6.40;96.10
75321;DHT22;63920;52.130;5.584;2022-12-07T12:31:34;6.40;95.70
75321;DHT22;63920;52.130;5.584;2022-12-07T12:34:04;6.70;95.50
75321;DHT22;63920;52.130;5.584;2022-12-07T12:36:48;6.30;95.70
75321;DHT22;63920;52.130;5.584;2022-12-07T12:39:16;6.40;95.90
75321;DHT22;63920;52.130;5.584;2022-12-07T12:46:48;6.50;95.90
75321;DHT22;63920;52.130;5.584;2022-12-07T12:51:58;6.40;96.20
75321;DHT22;63920;52.130;5.584;2022-12-07T12:54:34;6.50;96.10
75321;DHT22;63920;52.130;5.584;2022-12-07T12:57:29;6.60;96.20
75321;DHT22;63920;52.130;5.584;2022-12-07T12:59:56;6.60;95.20
75321;DHT22;63920;52.130;5.584;2022-12-07T13:15:48;6.40;95.30
75321;DHT22;63920;52.130;5.584;2022-12-07T13:31:52;5.60;99.20
75321;DHT22;63920;52.130;5.584;2022-12-07T13:34:40;5.50;99.20
75321;DHT22;63920;52.130;5.584;2022-12-07T13:39:48;5.40;99.30
75321;DHT22;63920;52.130;5.584;2022-12-07T13:42:29;5.40;99.40
75321;DHT22;63920;52.130;5.584;2022-12-07T13:44:55;5.30;99.70
75321;DHT22;63920;52.130;5.584;2022-12-07T13:47:39;5.20;99.90
75321;DHT22;63920;52.130;5.584;2022-12-07T13:50:26;5.30;99.90
75321;DHT22;63920;52.130;5.584;2022-12-07T13:52:57;5.30;99.90
75321;DHT22;63920;52.130;5.584;2022-12-07T13:55:23;5.50;99.90
75321;DHT22;63920;52.130;5.584;2022-12-07T13:57:51;5.30;99.90
75321;DHT22;63920;52.130;5.584;2022-12-07T14:00:26;5.30;99.90
75321;DHT22;63920;52.130;5.584;2022-12-07T14:03:23;5.40;99.90
75321;DHT22;63920;52.130;5.584;2022-12-07T14:08:32;5.40;99.90
75321;DHT22;63920;52.130;5.584;2022-12-07T14:10:58;5.40;99.90
75321;DHT22;63920;52.130;5.584;2022-12-07T14:15:54;5.70;99.60
75321;DHT22;63920;52.130;5.584;2022-12-07T14:18:36;5.40;99.50
75321;DHT22;63920;52.130;5.584;2022-12-07T14:21:16;5.40;98.80
75321;DHT22;63920;52.130;5.584;2022-12-07T14:24:06;5.40;98.90
75321;DHT22;63920;52.130;5.584;2022-12-07T14:26:33;5.40;98.80
75321;DHT22;63920;52.130;5.584;2022-12-07T14:31:45;5.50;98.80
75321;DHT22;63920;52.130;5.584;2022-12-07T14:34:14;5.50;98.90
75321;DHT22;63920;52.130;5.584;2022-12-07T14:36:39;5.50;99.00
75321;DHT22;63920;52.130;5.584;2022-12-07T14:39:05;5.40;99.00
75321;DHT22;63920;52.130;5.584;2022-12-07T14:41:31;5.40;99.00
75321;DHT22;63920;52.130;5.584;2022-12-07T14:44:15;5.40;99.00
75321;DHT22;63920;52.130;5.584;2022-12-07T14:46:41;5.40;99.10
75321;DHT22;63920;52.130;5.584;2022-12-07T14:49:06;5.30;99.00
75321;DHT22;63920;52.130;5.584;2022-12-07T14:51:33;5.30;99.20
75321;DHT22;63920;52.130;5.584;2022-12-07T14:54:00;5.30;98.90
75321;DHT22;63920;52.130;5.584;2022-12-07T14:56:25;5.30;98.90
75321;DHT22;63920;52.130;5.584;2022-12-07T14:58:51;5.40;98.90
75321;DHT22;63920;52.130;5.584;2022-12-07T15:01:16;5.40;99.00
75321;DHT22;63920;52.130;5.584;2022-12-07T15:03:42;5.30;98.90
75321;DHT22;63920;52.130;5.584;2022-12-07T15:06:14;5.30;98.90
75321;DHT22;63920;52.130;5.584;2022-12-07T15:08:40;5.40;99.00
75321;DHT22;63920;52.130;5.584;2022-12-07T15:11:06;5.50;99.00
75321;DHT22;63920;52.130;5.584;2022-12-07T15:13:31;5.30;99.00
75321;DHT22;63920;52.130;5.584;2022-12-07T15:16:19;5.40;99.10
75321;DHT22;63920;52.130;5.584;2022-12-07T15:18:46;5.80;99.30
75321;DHT22;63920;52.130;5.584;2022-12-07T15:21:15;5.40;99.10
75321;DHT22;63920;52.130;5.584;2022-12-07T15:23:41;5.40;98.90
75321;DHT22;63920;52.130;5.584;2022-12-07T15:26:07;5.40;98.80
75321;DHT22;63920;52.130;5.584;2022-12-07T15:28:33;5.40;99.00
75321;DHT22;63920;52.130;5.584;2022-12-07T15:30:59;5.30;99.10
75321;DHT22;63920;52.130;5.584;2022-12-07T15:33:24;5.30;99.30
75321;DHT22;63920;52.130;5.584;2022-12-07T15:35:50;5.30;99.00
75321;DHT22;63920;52.130;5.584;2022-12-07T15:38:16;5.30;99.00
75321;DHT22;63920;52.130;5.584;2022-12-07T15:40:41;5.40;99.00
75321;DHT22;63920;52.130;5.584;2022-12-07T15:43:09;5.30;98.80
75321;DHT22;63920;52.130;5.584;2022-12-07T15:45:55;5.30;98.90
75321;DHT22;63920;52.130;5.584;2022-12-07T15:48:20;5.30;98.90
75321;DHT22;63920;52.130;5.584;2022-12-07T15:50:46;5.30;98.50
75321;DHT22;63920;52.130;5.584;2022-12-07T15:53:11;5.30;98.70
75321;DHT22;63920;52.130;5.584;2022-12-07T15:55:40;5.20;98.80
75321;DHT22;63920;52.130;5.584;2022-12-07T15:58:06;5.20;98.80
75321;DHT22;63920;52.130;5.584;2022-12-07T16:00:32;5.20;98.90
75321;DHT22;63920;52.130;5.584;2022-12-07T16:02:58;5.10;99.10
75321;DHT22;63920;52.130;5.584;2022-12-07T16:05:23;5.10;99.10
75321;DHT22;63920;52.130;5.584;2022-12-07T16:07:49;5.10;99.20
75321;DHT22;63920;52.130;5.584;2022-12-07T16:10:15;5.00;99.10
75321;DHT22;63920;52.130;5.584;2022-12-07T16:12:40;5.00;99.20
75321;DHT22;63920;52.130;5.584;2022-12-07T16:15:06;5.00;99.10
75321;DHT22;63920;52.130;5.584;2022-12-07T16:17:32;5.00;99.30
75321;DHT22;63920;52.130;5.584;2022-12-07T16:19:58;5.00;99.30
75321;DHT22;63920;52.130;5.584;2022-12-07T16:22:24;4.90;99.20
75321;DHT22;63920;52.130;5.584;2022-12-07T16:24:49;4.90;99.20
75321;DHT22;63920;52.130;5.584;2022-12-07T16:27:15;4.90;99.70
75321;DHT22;63920;52.130;5.584;2022-12-07T16:29:41;4.90;99.40
75321;DHT22;63920;52.130;5.584;2022-12-07T16:32:07;4.90;99.40
75321;DHT22;63920;52.130;5.584;2022-12-07T16:34:32;4.90;99.40
75321;DHT22;63920;52.130;5.584;2022-12-07T16:36:58;4.90;99.30
75321;DHT22;63920;52.130;5.584;2022-12-07T16:39:24;4.90;99.20
75321;DHT22;63920;52.130;5.584;2022-12-07T16:41:50;4.90;99.20
75321;DHT22;63920;52.130;5.584;2022-12-07T16:44:15;4.90;99.10
75321;DHT22;63920;52.130;5.584;2022-12-07T16:46:42;4.90;99.20
75321;DHT22;63920;52.130;5.584;2022-12-07T16:49:15;4.90;99.10
75321;DHT22;63920;52.130;5.584;2022-12-07T16:51:41;4.90;99.20
75321;DHT22;63920;52.130;5.584;2022-12-07T16:54:10;4.90;99.40
75321;DHT22;63920;52.130;5.584;2022-12-07T16:56:37;4.90;99.20
75321;DHT22;63920;52.130;5.584;2022-12-07T16:59:03;4.90;99.10
75321;DHT22;63920;52.130;5.584;2022-12-07T17:01:28;4.90;99.00
75321;DHT22;63920;52.130;5.584;2022-12-07T17:03:55;4.90;99.10
75321;DHT22;63920;52.130;5.584;2022-12-07T17:06:23;4.90;99.00
75321;DHT22;63920;52.130;5.584;2022-12-07T17:08:50;4.90;98.90
75321;DHT22;63920;52.130;5.584;2022-12-07T17:11:27;4.80;99.00
75321;DHT22;63920;52.130;5.584;2022-12-07T17:13:53;4.80;99.10
75321;DHT22;63920;52.130;5.584;2022-12-07T17:16:38;4.80;99.10
75321;DHT22;63920;52.130;5.584;2022-12-07T17:19:05;4.80;99.20
75321;DHT22;63920;52.130;5.584;2022-12-07T17:21:31;4.80;99.30
75321;DHT22;63920;52.130;5.584;2022-12-07T17:24:02;4.70;99.10
75321;DHT22;63920;52.130;5.584;2022-12-07T17:26:29;4.70;99.10
75321;DHT22;63920;52.130;5.584;2022-12-07T17:28:55;4.70;99.10
75321;DHT22;63920;52.130;5.584;2022-12-07T17:31:22;4.70;99.20
75321;DHT22;63920;52.130;5.584;2022-12-07T17:33:48;4.70;99.30
75321;DHT22;63920;52.130;5.584;2022-12-07T17:36:19;4.70;99.30
75321;DHT22;63920;52.130;5.584;2022-12-07T17:38:45;4.60;99.40
75321;DHT22;63920;52.130;5.584;2022-12-07T17:41:15;4.60;99.60
75321;DHT22;63920;52.130;5.584;2022-12-07T17:44:00;4.50;99.70
75321;DHT22;63920;52.130;5.584;2022-12-07T17:46:27;4.50;99.60
75321;DHT22;63920;52.130;5.584;2022-12-07T17:48:56;4.60;99.70
75321;DHT22;63920;52.130;5.584;2022-12-07T17:51:22;4.60;99.80
75321;DHT22;63920;52.130;5.584;2022-12-07T17:54:06;4.50;99.70
75321;DHT22;63920;52.130;5.584;2022-12-07T17:56:31;4.50;99.80
75321;DHT22;63920;52.130;5.584;2022-12-07T17:58:57;4.60;99.80
75321;DHT22;63920;52.130;5.584;2022-12-07T18:01:22;4.60;99.70
75321;DHT22;63920;52.130;5.584;2022-12-07T18:03:48;4.50;99.90
75321;DHT22;63920;52.130;5.584;2022-12-07T18:06:13;4.60;99.90